sensor_id;sensor_type;location;lat;lon;timestamp;P1;durP1;ratioP1;P2;durP2;ratioP2
63312;SDS011;49442;45.640;13.812;2023-05-20T00:00:32;7.00;;;5.68;;
63312;SDS011;49442;45.640;13.812;2023-05-20T00:02:57;6.90;;;5.68;;
63312;SDS011;49442;45.640;13.812;2023-05-20T00:05:24;8.00;;;6.25;;
63312;SDS011;49442;45.640;13.812;2023-05-20T00:07:50;11.00;;;6.07;;
63312;SDS011;49442;45.640;13.812;2023-05-20T00:10:16;7.53;;;6.15;;
63312;SDS011;49442;45.640;13.812;2023-05-20T00:12:42;8.63;;;6.07;;
63312;SDS011;49442;45.640;13.812;2023-05-20T00:15:08;8.43;;;6.47;;
63312;SDS011;49442;45.640;13.812;2023-05-20T00:17:36;7.15;;;5.93;;
63312;SDS011;49442;45.640;13.812;2023-05-20T00:20:02;6.72;;;5.90;;
63312;SDS011;49442;45.640;13.812;2023-05-20T00:22:29;6.88;;;5.22;;
63312;SDS011;49442;45.640;13.812;2023-05-20T00:24:55;7.72;;;5.63;;
63312;SDS011;49442;45.640;13.812;2023-05-20T00:27:21;8.93;;;5.90;;
63312;SDS011;49442;45.640;13.812;2023-05-20T00:29:47;6.63;;;5.63;;
63312;SDS011;49442;45.640;13.812;2023-05-20T00:32:12;8.40;;;6.22;;
63312;SDS011;49442;45.640;13.812;2023-05-20T00:34:38;6.20;;;5.20;;
63312;SDS011;49442;45.640;13.812;2023-05-20T00:37:04;9.25;;;5.38;;
63312;SDS011;49442;45.640;13.812;2023-05-20T00:39:30;9.43;;;5.03;;
63312;SDS011;49442;45.640;13.812;2023-05-20T00:41:56;10.65;;;4.95;;
63312;SDS011;49442;45.640;13.812;2023-05-20T00:44:24;6.68;;;4.90;;
63312;SDS011;49442;45.640;13.812;2023-05-20T00:46:50;6.97;;;5.10;;
63312;SDS011;49442;45.640;13.812;2023-05-20T00:49:18;6.28;;;5.03;;
63312;SDS011;49442;45.640;13.812;2023-05-20T00:51:44;6.13;;;4.50;;
63312;SDS011;49442;45.640;13.812;2023-05-20T00:54:10;5.95;;;5.00;;
63312;SDS011;49442;45.640;13.812;2023-05-20T00:56:36;7.82;;;5.20;;
63312;SDS011;49442;45.640;13.812;2023-05-20T00:59:02;6.65;;;5.28;;
63312;SDS011;49442;45.640;13.812;2023-05-20T01:01:28;7.63;;;4.70;;
63312;SDS011;49442;45.640;13.812;2023-05-20T01:03:54;6.10;;;5.00;;
63312;SDS011;49442;45.640;13.812;2023-05-20T01:06:20;5.57;;;4.70;;
63312;SDS011;49442;45.640;13.812;2023-05-20T01:08:45;7.85;;;4.88;;
63312;SDS011;49442;45.640;13.812;2023-05-20T01:11:16;6.82;;;4.90;;
63312;SDS011;49442;45.640;13.812;2023-05-20T01:13:52;6.10;;;4.68;;
63312;SDS011;49442;45.640;13.812;2023-05-20T01:16:19;5.28;;;4.05;;
63312;SDS011;49442;45.640;13.812;2023-05-20T01:18:48;7.40;;;4.75;;
63312;SDS011;49442;45.640;13.812;2023-05-20T01:21:19;7.18;;;4.82;;
63312;SDS011;49442;45.640;13.812;2023-05-20T01:23:45;7.25;;;4.85;;
63312;SDS011;49442;45.640;13.812;2023-05-20T01:26:11;9.77;;;5.28;;
63312;SDS011;49442;45.640;13.812;2023-05-20T01:28:37;5.95;;;5.20;;
63312;SDS011;49442;45.640;13.812;2023-05-20T01:31:04;9.40;;;6.25;;
63312;SDS011;49442;45.640;13.812;2023-05-20T01:33:34;6.65;;;5.95;;
63312;SDS011;49442;45.640;13.812;2023-05-20T01:36:01;8.75;;;5.60;;
63312;SDS011;49442;45.640;13.812;2023-05-20T01:38:27;6.25;;;4.90;;
63312;SDS011;49442;45.640;13.812;2023-05-20T01:40:54;8.27;;;6.00;;
63312;SDS011;49442;45.640;13.812;2023-05-20T01:43:22;6.78;;;5.70;;
63312;SDS011;49442;45.640;13.812;2023-05-20T01:45:49;9.73;;;6.32;;
63312;SDS011;49442;45.640;13.812;2023-05-20T01:48:15;8.73;;;6.25;;
63312;SDS011;49442;45.640;13.812;2023-05-20T01:50:41;11.93;;;6.82;;
63312;SDS011;49442;45.640;13.812;2023-05-20T01:53:07;8.57;;;5.55;;
63312;SDS011;49442;45.640;13.812;2023-05-20T01:55:33;8.10;;;6.55;;
63312;SDS011;49442;45.640;13.812;2023-05-20T01:58:00;8.40;;;6.70;;
63312;SDS011;49442;45.640;13.812;2023-05-20T02:00:26;8.00;;;6.82;;
63312;SDS011;49442;45.640;13.812;2023-05-20T02:02:52;8.75;;;6.78;;
63312;SDS011;49442;45.640;13.812;2023-05-20T02:05:17;9.60;;;7.00;;
63312;SDS011;49442;45.640;13.812;2023-05-20T02:07:43;12.20;;;8.10;;
63312;SDS011;49442;45.640;13.812;2023-05-20T02:10:09;10.35;;;7.45;;
63312;SDS011;49442;45.640;13.812;2023-05-20T02:12:35;9.63;;;7.22;;
63312;SDS011;49442;45.640;13.812;2023-05-20T02:15:01;12.38;;;7.95;;
63312;SDS011;49442;45.640;13.812;2023-05-20T02:17:27;9.43;;;7.00;;
63312;SDS011;49442;45.640;13.812;2023-05-20T02:19:53;10.02;;;7.55;;
63312;SDS011;49442;45.640;13.812;2023-05-20T02:22:18;11.18;;;8.20;;
63312;SDS011;49442;45.640;13.812;2023-05-20T02:24:44;13.45;;;8.63;;
63312;SDS011;49442;45.640;13.812;2023-05-20T02:27:10;11.02;;;8.43;;
63312;SDS011;49442;45.640;13.812;2023-05-20T02:29:36;10.82;;;8.93;;
63312;SDS011;49442;45.640;13.812;2023-05-20T02:32:02;10.13;;;8.02;;
63312;SDS011;49442;45.640;13.812;2023-05-20T02:34:28;11.15;;;8.52;;
63312;SDS011;49442;45.640;13.812;2023-05-20T02:36:55;12.40;;;9.00;;
63312;SDS011;49442;45.640;13.812;2023-05-20T02:39:21;14.85;;;8.85;;
63312;SDS011;49442;45.640;13.812;2023-05-20T02:41:47;12.18;;;9.75;;
63312;SDS011;49442;45.640;13.812;2023-05-20T02:44:12;13.45;;;9.10;;
63312;SDS011;49442;45.640;13.812;2023-05-20T02:46:39;15.80;;;9.48;;
63312;SDS011;49442;45.640;13.812;2023-05-20T02:49:04;14.52;;;10.23;;
63312;SDS011;49442;45.640;13.812;2023-05-20T02:51:30;10.85;;;9.20;;
63312;SDS011;49442;45.640;13.812;2023-05-20T02:53:57;13.98;;;10.05;;
63312;SDS011;49442;45.640;13.812;2023-05-20T02:56:23;16.63;;;12.30;;
63312;SDS011;49442;45.640;13.812;2023-05-20T02:58:48;16.80;;;10.63;;
63312;SDS011;49442;45.640;13.812;2023-05-20T03:01:14;15.50;;;11.45;;
63312;SDS011;49442;45.640;13.812;2023-05-20T03:03:40;14.02;;;11.05;;
63312;SDS011;49442;45.640;13.812;2023-05-20T03:06:06;13.80;;;10.75;;
63312;SDS011;49442;45.640;13.812;2023-05-20T03:08:32;15.50;;;10.63;;
63312;SDS011;49442;45.640;13.812;2023-05-20T03:10:58;17.45;;;10.93;;
63312;SDS011;49442;45.640;13.812;2023-05-20T03:13:24;13.77;;;10.52;;
63312;SDS011;49442;45.640;13.812;2023-05-20T03:15:50;16.33;;;11.23;;
63312;SDS011;49442;45.640;13.812;2023-05-20T03:18:16;15.35;;;11.48;;
63312;SDS011;49442;45.640;13.812;2023-05-20T03:20:42;14.52;;;11.32;;
63312;SDS011;49442;45.640;13.812;2023-05-20T03:23:08;14.77;;;11.38;;
63312;SDS011;49442;45.640;13.812;2023-05-20T03:25:35;14.80;;;11.85;;
63312;SDS011;49442;45.640;13.812;2023-05-20T03:28:01;16.33;;;10.82;;
63312;SDS011;49442;45.640;13.812;2023-05-20T03:30:27;16.20;;;10.98;;
63312;SDS011;49442;45.640;13.812;2023-05-20T03:32:53;16.35;;;11.13;;
63312;SDS011;49442;45.640;13.812;2023-05-20T03:35:21;13.30;;;10.75;;
63312;SDS011;49442;45.640;13.812;2023-05-20T03:37:47;15.50;;;10.77;;
63312;SDS011;49442;45.640;13.812;2023-05-20T03:40:13;13.10;;;11.05;;
63312;SDS011;49442;45.640;13.812;2023-05-20T03:42:38;15.25;;;11.52;;
63312;SDS011;49442;45.640;13.812;2023-05-20T03:45:04;15.27;;;12.15;;
63312;SDS011;49442;45.640;13.812;2023-05-20T03:47:31;14.13;;;11.15;;
63312;SDS011;49442;45.640;13.812;2023-05-20T03:49:56;14.15;;;10.90;;
63312;SDS011;49442;45.640;13.812;2023-05-20T03:52:22;16.13;;;10.85;;
63312;SDS011;49442;45.640;13.812;2023-05-20T03:54:48;18.88;;;11.38;;
63312;SDS011;49442;45.640;13.812;2023-05-20T03:57:13;13.73;;;10.98;;
63312;SDS011;49442;45.640;13.812;2023-05-20T03:59:39;16.33;;;11.73;;
63312;SDS011;49442;45.640;13.812;2023-05-20T04:02:05;14.70;;;10.88;;
63312;SDS011;49442;45.640;13.812;2023-05-20T04:04:33;11.90;;;9.68;;
63312;SDS011;49442;45.640;13.812;2023-05-20T04:06:58;14.60;;;10.73;;
63312;SDS011;49442;45.640;13.812;2023-05-20T04:09:30;13.85;;;10.85;;
63312;SDS011;49442;45.640;13.812;2023-05-20T04:11:56;13.10;;;10.80;;
63312;SDS011;49442;45.640;13.812;2023-05-20T04:14:22;12.77;;;10.38;;
63312;SDS011;49442;45.640;13.812;2023-05-20T04:16:47;13.82;;;10.50;;
63312;SDS011;49442;45.640;13.812;2023-05-20T04:19:14;11.20;;;9.38;;
63312;SDS011;49442;45.640;13.812;2023-05-20T04:21:41;12.15;;;8.25;;
63312;SDS011;49442;45.640;13.812;2023-05-20T04:24:07;14.52;;;9.55;;
63312;SDS011;49442;45.640;13.812;2023-05-20T04:26:33;10.45;;;8.45;;
63312;SDS011;49442;45.640;13.812;2023-05-20T04:29:00;11.90;;;8.25;;
63312;SDS011;49442;45.640;13.812;2023-05-20T04:31:28;10.98;;;7.53;;
63312;SDS011;49442;45.640;13.812;2023-05-20T04:33:55;10.48;;;8.05;;
63312;SDS011;49442;45.640;13.812;2023-05-20T04:36:21;9.40;;;7.95;;
63312;SDS011;49442;45.640;13.812;2023-05-20T04:38:52;10.63;;;8.18;;
63312;SDS011;49442;45.640;13.812;2023-05-20T04:41:18;8.80;;;7.47;;
63312;SDS011;49442;45.640;13.812;2023-05-20T04:43:44;9.73;;;7.78;;
63312;SDS011;49442;45.640;13.812;2023-05-20T04:46:10;11.90;;;7.25;;
63312;SDS011;49442;45.640;13.812;2023-05-20T04:48:35;8.68;;;7.25;;
63312;SDS011;49442;45.640;13.812;2023-05-20T04:51:02;9.45;;;7.50;;
63312;SDS011;49442;45.640;13.812;2023-05-20T04:53:27;11.48;;;7.53;;
63312;SDS011;49442;45.640;13.812;2023-05-20T04:55:54;13.52;;;8.15;;
63312;SDS011;49442;45.640;13.812;2023-05-20T04:58:21;12.18;;;8.63;;
63312;SDS011;49442;45.640;13.812;2023-05-20T05:00:48;11.75;;;8.75;;
63312;SDS011;49442;45.640;13.812;2023-05-20T05:03:15;12.68;;;8.50;;
63312;SDS011;49442;45.640;13.812;2023-05-20T05:05:41;11.30;;;7.53;;
63312;SDS011;49442;45.640;13.812;2023-05-20T05:08:08;12.23;;;7.55;;
63312;SDS011;49442;45.640;13.812;2023-05-20T05:10:35;10.82;;;8.13;;
63312;SDS011;49442;45.640;13.812;2023-05-20T05:13:01;11.10;;;8.25;;
63312;SDS011;49442;45.640;13.812;2023-05-20T05:15:27;10.65;;;7.85;;
63312;SDS011;49442;45.640;13.812;2023-05-20T05:17:53;8.88;;;7.80;;
63312;SDS011;49442;45.640;13.812;2023-05-20T05:20:19;11.43;;;8.13;;
63312;SDS011;49442;45.640;13.812;2023-05-20T05:22:45;14.30;;;9.48;;
63312;SDS011;49442;45.640;13.812;2023-05-20T05:25:11;12.63;;;8.30;;
63312;SDS011;49442;45.640;13.812;2023-05-20T05:27:37;8.60;;;7.70;;
63312;SDS011;49442;45.640;13.812;2023-05-20T05:30:04;12.82;;;8.20;;
63312;SDS011;49442;45.640;13.812;2023-05-20T05:32:31;11.15;;;8.25;;
63312;SDS011;49442;45.640;13.812;2023-05-20T05:34:57;12.45;;;7.88;;
63312;SDS011;49442;45.640;13.812;2023-05-20T05:37:23;11.98;;;8.38;;
63312;SDS011;49442;45.640;13.812;2023-05-20T05:39:48;12.48;;;8.35;;
63312;SDS011;49442;45.640;13.812;2023-05-20T05:42:14;12.02;;;8.20;;
63312;SDS011;49442;45.640;13.812;2023-05-20T05:44:40;10.88;;;7.93;;
63312;SDS011;49442;45.640;13.812;2023-05-20T05:47:06;16.20;;;8.15;;
63312;SDS011;49442;45.640;13.812;2023-05-20T05:49:32;9.82;;;8.13;;
63312;SDS011;49442;45.640;13.812;2023-05-20T05:51:58;9.05;;;7.90;;
63312;SDS011;49442;45.640;13.812;2023-05-20T05:54:23;10.40;;;7.30;;
63312;SDS011;49442;45.640;13.812;2023-05-20T05:56:53;8.98;;;7.18;;
63312;SDS011;49442;45.640;13.812;2023-05-20T05:59:20;9.35;;;7.32;;
63312;SDS011;49442;45.640;13.812;2023-05-20T06:01:48;10.35;;;7.07;;
63312;SDS011;49442;45.640;13.812;2023-05-20T06:04:13;10.13;;;7.97;;
63312;SDS011;49442;45.640;13.812;2023-05-20T06:06:40;11.00;;;8.05;;
63312;SDS011;49442;45.640;13.812;2023-05-20T06:09:05;9.23;;;7.70;;
63312;SDS011;49442;45.640;13.812;2023-05-20T06:11:31;9.02;;;7.65;;
63312;SDS011;49442;45.640;13.812;2023-05-20T06:13:57;16.27;;;8.35;;
63312;SDS011;49442;45.640;13.812;2023-05-20T06:16:24;11.55;;;8.43;;
63312;SDS011;49442;45.640;13.812;2023-05-20T06:18:49;10.95;;;9.02;;
63312;SDS011;49442;45.640;13.812;2023-05-20T06:21:15;10.63;;;8.88;;
63312;SDS011;49442;45.640;13.812;2023-05-20T06:23:41;13.50;;;9.65;;
63312;SDS011;49442;45.640;13.812;2023-05-20T06:26:07;12.65;;;10.20;;
63312;SDS011;49442;45.640;13.812;2023-05-20T06:28:32;14.63;;;10.55;;
63312;SDS011;49442;45.640;13.812;2023-05-20T06:30:58;12.05;;;10.57;;
63312;SDS011;49442;45.640;13.812;2023-05-20T06:33:24;14.90;;;11.02;;
63312;SDS011;49442;45.640;13.812;2023-05-20T06:35:54;13.70;;;11.43;;
63312;SDS011;49442;45.640;13.812;2023-05-20T06:38:21;15.50;;;12.30;;
63312;SDS011;49442;45.640;13.812;2023-05-20T06:40:47;13.93;;;11.52;;
63312;SDS011;49442;45.640;13.812;2023-05-20T06:43:16;16.88;;;13.07;;
63312;SDS011;49442;45.640;13.812;2023-05-20T06:45:42;16.27;;;12.95;;
63312;SDS011;49442;45.640;13.812;2023-05-20T06:48:08;15.68;;;13.02;;
63312;SDS011;49442;45.640;13.812;2023-05-20T06:50:35;16.88;;;13.55;;
63312;SDS011;49442;45.640;13.812;2023-05-20T06:53:01;19.83;;;13.00;;
63312;SDS011;49442;45.640;13.812;2023-05-20T06:55:26;17.45;;;13.93;;
63312;SDS011;49442;45.640;13.812;2023-05-20T06:57:52;16.90;;;12.93;;
63312;SDS011;49442;45.640;13.812;2023-05-20T07:00:18;18.08;;;13.25;;
63312;SDS011;49442;45.640;13.812;2023-05-20T07:02:44;16.60;;;13.88;;
63312;SDS011;49442;45.640;13.812;2023-05-20T07:05:10;17.85;;;13.50;;
63312;SDS011;49442;45.640;13.812;2023-05-20T07:07:36;15.57;;;11.50;;
63312;SDS011;49442;45.640;13.812;2023-05-20T07:10:02;16.35;;;12.77;;
63312;SDS011;49442;45.640;13.812;2023-05-20T07:12:30;14.65;;;12.77;;
63312;SDS011;49442;45.640;13.812;2023-05-20T07:14:56;16.17;;;12.07;;
63312;SDS011;49442;45.640;13.812;2023-05-20T07:17:22;13.30;;;11.52;;
63312;SDS011;49442;45.640;13.812;2023-05-20T07:19:48;14.35;;;11.10;;
63312;SDS011;49442;45.640;13.812;2023-05-20T07:22:14;16.15;;;11.27;;
63312;SDS011;49442;45.640;13.812;2023-05-20T07:24:40;17.38;;;12.25;;
63312;SDS011;49442;45.640;13.812;2023-05-20T07:27:06;14.55;;;11.52;;
63312;SDS011;49442;45.640;13.812;2023-05-20T07:29:33;12.32;;;10.65;;
63312;SDS011;49442;45.640;13.812;2023-05-20T07:31:59;14.73;;;10.27;;
63312;SDS011;49442;45.640;13.812;2023-05-20T07:34:25;14.13;;;10.43;;
63312;SDS011;49442;45.640;13.812;2023-05-20T07:36:51;13.27;;;9.88;;
63312;SDS011;49442;45.640;13.812;2023-05-20T07:39:17;12.63;;;9.88;;
63312;SDS011;49442;45.640;13.812;2023-05-20T07:41:43;12.25;;;9.73;;
63312;SDS011;49442;45.640;13.812;2023-05-20T07:44:09;12.43;;;8.90;;
63312;SDS011;49442;45.640;13.812;2023-05-20T07:46:36;11.85;;;8.95;;
63312;SDS011;49442;45.640;13.812;2023-05-20T07:49:02;14.13;;;9.35;;
63312;SDS011;49442;45.640;13.812;2023-05-20T07:51:28;13.73;;;8.88;;
63312;SDS011;49442;45.640;13.812;2023-05-20T07:53:55;14.23;;;8.75;;
63312;SDS011;49442;45.640;13.812;2023-05-20T07:56:21;13.57;;;9.43;;
63312;SDS011;49442;45.640;13.812;2023-05-20T07:58:53;11.90;;;8.55;;
63312;SDS011;49442;45.640;13.812;2023-05-20T08:01:23;11.65;;;8.60;;
63312;SDS011;49442;45.640;13.812;2023-05-20T08:03:50;12.35;;;9.32;;
63312;SDS011;49442;45.640;13.812;2023-05-20T08:06:15;21.38;;;9.63;;
63312;SDS011;49442;45.640;13.812;2023-05-20T08:08:41;13.45;;;9.75;;
63312;SDS011;49442;45.640;13.812;2023-05-20T08:11:07;17.65;;;10.23;;
63312;SDS011;49442;45.640;13.812;2023-05-20T08:13:33;14.55;;;10.43;;
63312;SDS011;49442;45.640;13.812;2023-05-20T08:15:59;18.85;;;11.00;;
63312;SDS011;49442;45.640;13.812;2023-05-20T08:18:25;16.95;;;11.20;;
63312;SDS011;49442;45.640;13.812;2023-05-20T08:20:51;14.13;;;11.38;;
63312;SDS011;49442;45.640;13.812;2023-05-20T08:23:17;16.25;;;11.35;;
63312;SDS011;49442;45.640;13.812;2023-05-20T08:25:42;13.40;;;11.40;;
63312;SDS011;49442;45.640;13.812;2023-05-20T08:28:10;14.07;;;11.18;;
63312;SDS011;49442;45.640;13.812;2023-05-20T08:30:36;12.52;;;10.88;;
63312;SDS011;49442;45.640;13.812;2023-05-20T08:33:02;15.07;;;11.18;;
63312;SDS011;49442;45.640;13.812;2023-05-20T08:35:27;13.82;;;10.48;;
63312;SDS011;49442;45.640;13.812;2023-05-20T08:37:53;14.65;;;10.52;;
63312;SDS011;49442;45.640;13.812;2023-05-20T08:40:19;12.75;;;11.15;;
63312;SDS011;49442;45.640;13.812;2023-05-20T08:42:46;14.20;;;11.77;;
63312;SDS011;49442;45.640;13.812;2023-05-20T08:45:17;13.60;;;10.13;;
63312;SDS011;49442;45.640;13.812;2023-05-20T08:47:44;14.60;;;10.83;;
63312;SDS011;49442;45.640;13.812;2023-05-20T08:50:10;13.27;;;10.63;;
63312;SDS011;49442;45.640;13.812;2023-05-20T08:52:46;13.07;;;10.85;;
63312;SDS011;49442;45.640;13.812;2023-05-20T08:57:59;18.75;;;10.80;;
63312;SDS011;49442;45.640;13.812;2023-05-20T09:00:25;13.93;;;10.80;;
63312;SDS011;49442;45.640;13.812;2023-05-20T09:02:53;14.18;;;10.43;;
63312;SDS011;49442;45.640;13.812;2023-05-20T09:05:21;15.57;;;9.63;;
63312;SDS011;49442;45.640;13.812;2023-05-20T09:07:46;12.02;;;9.35;;
63312;SDS011;49442;45.640;13.812;2023-05-20T09:10:13;9.45;;;7.78;;
63312;SDS011;49442;45.640;13.812;2023-05-20T09:12:39;10.55;;;8.45;;
63312;SDS011;49442;45.640;13.812;2023-05-20T09:15:04;12.63;;;7.40;;
63312;SDS011;49442;45.640;13.812;2023-05-20T09:17:31;13.02;;;7.20;;
63312;SDS011;49442;45.640;13.812;2023-05-20T09:20:00;8.48;;;7.00;;
63312;SDS011;49442;45.640;13.812;2023-05-20T09:22:30;7.70;;;6.53;;
63312;SDS011;49442;45.640;13.812;2023-05-20T09:24:56;8.02;;;7.18;;
63312;SDS011;49442;45.640;13.812;2023-05-20T09:27:21;12.23;;;6.50;;
63312;SDS011;49442;45.640;13.812;2023-05-20T09:29:48;10.68;;;7.35;;
63312;SDS011;49442;45.640;13.812;2023-05-20T09:32:15;7.70;;;6.10;;
63312;SDS011;49442;45.640;13.812;2023-05-20T09:34:41;8.32;;;6.18;;
63312;SDS011;49442;45.640;13.812;2023-05-20T09:37:09;9.55;;;7.25;;
63312;SDS011;49442;45.640;13.812;2023-05-20T09:39:59;7.97;;;7.18;;
63312;SDS011;49442;45.640;13.812;2023-05-20T09:42:25;9.73;;;6.97;;
63312;SDS011;49442;45.640;13.812;2023-05-20T09:44:54;11.32;;;7.07;;
63312;SDS011;49442;45.640;13.812;2023-05-20T09:47:22;11.70;;;7.15;;
63312;SDS011;49442;45.640;13.812;2023-05-20T09:49:49;12.93;;;8.00;;
63312;SDS011;49442;45.640;13.812;2023-05-20T09:52:17;12.10;;;7.90;;
63312;SDS011;49442;45.640;13.812;2023-05-20T09:54:43;14.38;;;8.35;;
63312;SDS011;49442;45.640;13.812;2023-05-20T09:57:11;13.07;;;8.48;;
63312;SDS011;49442;45.640;13.812;2023-05-20T09:59:37;11.55;;;7.95;;
63312;SDS011;49442;45.640;13.812;2023-05-20T10:02:05;12.70;;;8.27;;
63312;SDS011;49442;45.640;13.812;2023-05-20T10:04:34;14.35;;;8.57;;
63312;SDS011;49442;45.640;13.812;2023-05-20T10:09:55;11.90;;;8.55;;
63312;SDS011;49442;45.640;13.812;2023-05-20T10:20:46;11.98;;;8.23;;
63312;SDS011;49442;45.640;13.812;2023-05-20T10:23:19;9.88;;;8.05;;
63312;SDS011;49442;45.640;13.812;2023-05-20T10:25:49;11.00;;;7.73;;
63312;SDS011;49442;45.640;13.812;2023-05-20T10:28:23;18.77;;;7.85;;
63312;SDS011;49442;45.640;13.812;2023-05-20T10:31:02;9.68;;;7.05;;
63312;SDS011;49442;45.640;13.812;2023-05-20T10:33:40;11.40;;;7.60;;
63312;SDS011;49442;45.640;13.812;2023-05-20T10:36:07;14.93;;;7.60;;
63312;SDS011;49442;45.640;13.812;2023-05-20T10:38:33;13.18;;;7.75;;
63312;SDS011;49442;45.640;13.812;2023-05-20T10:41:08;7.80;;;6.55;;
63312;SDS011;49442;45.640;13.812;2023-05-20T10:43:35;11.85;;;8.25;;
63312;SDS011;49442;45.640;13.812;2023-05-20T10:46:01;12.52;;;8.20;;
63312;SDS011;49442;45.640;13.812;2023-05-20T10:48:30;9.95;;;8.30;;
63312;SDS011;49442;45.640;13.812;2023-05-20T10:50:57;9.48;;;7.50;;
63312;SDS011;49442;45.640;13.812;2023-05-20T10:53:25;9.18;;;7.60;;
63312;SDS011;49442;45.640;13.812;2023-05-20T10:55:52;13.65;;;7.72;;
63312;SDS011;49442;45.640;13.812;2023-05-20T10:58:20;9.30;;;7.90;;
63312;SDS011;49442;45.640;13.812;2023-05-20T11:00:48;11.90;;;7.75;;
63312;SDS011;49442;45.640;13.812;2023-05-20T11:03:17;9.65;;;7.40;;
63312;SDS011;49442;45.640;13.812;2023-05-20T11:05:46;10.55;;;7.30;;
63312;SDS011;49442;45.640;13.812;2023-05-20T11:08:12;9.07;;;7.95;;
63312;SDS011;49442;45.640;13.812;2023-05-20T11:10:38;9.52;;;7.20;;
63312;SDS011;49442;45.640;13.812;2023-05-20T11:13:05;9.80;;;6.90;;
63312;SDS011;49442;45.640;13.812;2023-05-20T11:15:33;7.25;;;6.50;;
63312;SDS011;49442;45.640;13.812;2023-05-20T11:18:01;12.00;;;6.88;;
63312;SDS011;49442;45.640;13.812;2023-05-20T11:20:28;9.95;;;7.10;;
63312;SDS011;49442;45.640;13.812;2023-05-20T11:22:55;10.10;;;6.60;;
63312;SDS011;49442;45.640;13.812;2023-05-20T11:25:21;9.60;;;6.63;;
63312;SDS011;49442;45.640;13.812;2023-05-20T11:27:48;10.32;;;6.45;;
63312;SDS011;49442;45.640;13.812;2023-05-20T11:30:15;8.18;;;5.75;;
63312;SDS011;49442;45.640;13.812;2023-05-20T11:32:55;16.42;;;6.45;;
63312;SDS011;49442;45.640;13.812;2023-05-20T11:35:22;7.38;;;5.78;;
63312;SDS011;49442;45.640;13.812;2023-05-20T11:38:05;10.75;;;6.18;;
63312;SDS011;49442;45.640;13.812;2023-05-20T11:40:34;9.80;;;6.78;;
63312;SDS011;49442;45.640;13.812;2023-05-20T11:43:00;14.52;;;6.95;;
63312;SDS011;49442;45.640;13.812;2023-05-20T11:45:37;12.77;;;6.93;;
63312;SDS011;49442;45.640;13.812;2023-05-20T11:48:04;7.45;;;6.65;;
63312;SDS011;49442;45.640;13.812;2023-05-20T11:50:37;10.00;;;6.00;;
63312;SDS011;49442;45.640;13.812;2023-05-20T11:53:08;6.80;;;6.10;;
63312;SDS011;49442;45.640;13.812;2023-05-20T11:55:48;10.25;;;6.72;;
63312;SDS011;49442;45.640;13.812;2023-05-20T11:58:15;9.05;;;6.20;;
63312;SDS011;49442;45.640;13.812;2023-05-20T12:00:45;7.20;;;6.28;;
63312;SDS011;49442;45.640;13.812;2023-05-20T12:03:11;9.25;;;5.88;;
63312;SDS011;49442;45.640;13.812;2023-05-20T12:05:37;9.90;;;6.03;;
63312;SDS011;49442;45.640;13.812;2023-05-20T12:08:04;7.60;;;6.20;;
63312;SDS011;49442;45.640;13.812;2023-05-20T12:10:30;9.13;;;6.30;;
63312;SDS011;49442;45.640;13.812;2023-05-20T12:12:56;9.80;;;6.18;;
63312;SDS011;49442;45.640;13.812;2023-05-20T12:15:22;10.35;;;6.85;;
63312;SDS011;49442;45.640;13.812;2023-05-20T12:17:49;8.75;;;5.85;;
63312;SDS011;49442;45.640;13.812;2023-05-20T12:20:18;12.85;;;6.40;;
63312;SDS011;49442;45.640;13.812;2023-05-20T12:22:47;11.52;;;6.68;;
63312;SDS011;49442;45.640;13.812;2023-05-20T12:25:14;9.02;;;6.85;;
63312;SDS011;49442;45.640;13.812;2023-05-20T12:27:42;9.88;;;6.75;;
63312;SDS011;49442;45.640;13.812;2023-05-20T12:30:12;10.02;;;6.78;;
63312;SDS011;49442;45.640;13.812;2023-05-20T12:32:39;9.57;;;6.05;;
63312;SDS011;49442;45.640;13.812;2023-05-20T12:35:05;13.43;;;6.85;;
63312;SDS011;49442;45.640;13.812;2023-05-20T12:37:31;9.75;;;6.57;;
63312;SDS011;49442;45.640;13.812;2023-05-20T12:39:58;7.75;;;6.63;;
63312;SDS011;49442;45.640;13.812;2023-05-20T12:42:23;10.32;;;6.68;;
63312;SDS011;49442;45.640;13.812;2023-05-20T12:44:49;9.65;;;6.72;;
63312;SDS011;49442;45.640;13.812;2023-05-20T12:47:15;9.60;;;7.15;;
63312;SDS011;49442;45.640;13.812;2023-05-20T12:49:41;9.77;;;6.93;;
63312;SDS011;49442;45.640;13.812;2023-05-20T12:52:06;8.02;;;6.88;;
63312;SDS011;49442;45.640;13.812;2023-05-20T12:54:32;7.53;;;6.50;;
63312;SDS011;49442;45.640;13.812;2023-05-20T12:56:58;7.72;;;6.93;;
63312;SDS011;49442;45.640;13.812;2023-05-20T12:59:24;8.82;;;7.28;;
63312;SDS011;49442;45.640;13.812;2023-05-20T13:01:49;9.27;;;7.43;;
63312;SDS011;49442;45.640;13.812;2023-05-20T13:04:15;9.73;;;7.30;;
63312;SDS011;49442;45.640;13.812;2023-05-20T13:06:41;11.45;;;7.97;;
63312;SDS011;49442;45.640;13.812;2023-05-20T13:09:06;9.43;;;7.78;;
63312;SDS011;49442;45.640;13.812;2023-05-20T13:11:32;13.27;;;7.13;;
63312;SDS011;49442;45.640;13.812;2023-05-20T13:13:58;9.90;;;7.88;;
63312;SDS011;49442;45.640;13.812;2023-05-20T13:16:24;13.77;;;8.15;;
63312;SDS011;49442;45.640;13.812;2023-05-20T13:18:50;12.30;;;8.60;;
63312;SDS011;49442;45.640;13.812;2023-05-20T13:21:16;10.57;;;7.95;;
63312;SDS011;49442;45.640;13.812;2023-05-20T13:23:42;10.05;;;9.05;;
63312;SDS011;49442;45.640;13.812;2023-05-20T13:26:08;13.05;;;9.10;;
63312;SDS011;49442;45.640;13.812;2023-05-20T13:28:34;12.65;;;8.57;;
63312;SDS011;49442;45.640;13.812;2023-05-20T13:31:01;9.50;;;8.52;;
63312;SDS011;49442;45.640;13.812;2023-05-20T13:33:27;13.70;;;9.23;;
63312;SDS011;49442;45.640;13.812;2023-05-20T13:35:52;10.48;;;9.45;;
63312;SDS011;49442;45.640;13.812;2023-05-20T13:38:18;12.85;;;9.90;;
63312;SDS011;49442;45.640;13.812;2023-05-20T13:40:44;9.82;;;8.82;;
63312;SDS011;49442;45.640;13.812;2023-05-20T13:43:09;12.25;;;10.73;;
63312;SDS011;49442;45.640;13.812;2023-05-20T13:45:35;9.50;;;8.52;;
63312;SDS011;49442;45.640;13.812;2023-05-20T13:48:01;12.07;;;9.32;;
63312;SDS011;49442;45.640;13.812;2023-05-20T13:50:27;16.15;;;10.15;;
63312;SDS011;49442;45.640;13.812;2023-05-20T13:52:53;20.15;;;9.77;;
63312;SDS011;49442;45.640;13.812;2023-05-20T13:55:18;13.38;;;8.82;;
63312;SDS011;49442;45.640;13.812;2023-05-20T13:57:44;12.32;;;9.98;;
63312;SDS011;49442;45.640;13.812;2023-05-20T14:00:10;12.45;;;9.63;;
63312;SDS011;49442;45.640;13.812;2023-05-20T14:02:36;10.50;;;9.25;;
63312;SDS011;49442;45.640;13.812;2023-05-20T14:05:02;11.35;;;9.30;;
63312;SDS011;49442;45.640;13.812;2023-05-20T14:07:28;12.27;;;10.05;;
63312;SDS011;49442;45.640;13.812;2023-05-20T14:09:54;14.98;;;9.70;;
63312;SDS011;49442;45.640;13.812;2023-05-20T14:12:19;11.63;;;9.82;;
63312;SDS011;49442;45.640;13.812;2023-05-20T14:14:46;19.92;;;10.00;;
63312;SDS011;49442;45.640;13.812;2023-05-20T14:17:12;14.48;;;10.25;;
63312;SDS011;49442;45.640;13.812;2023-05-20T14:19:38;10.73;;;9.00;;
63312;SDS011;49442;45.640;13.812;2023-05-20T14:22:03;13.82;;;9.07;;
63312;SDS011;49442;45.640;13.812;2023-05-20T14:24:29;13.02;;;9.50;;
63312;SDS011;49442;45.640;13.812;2023-05-20T14:26:55;21.58;;;9.38;;
63312;SDS011;49442;45.640;13.812;2023-05-20T14:29:21;17.23;;;9.38;;
63312;SDS011;49442;45.640;13.812;2023-05-20T14:31:46;10.50;;;9.40;;
63312;SDS011;49442;45.640;13.812;2023-05-20T14:34:12;12.30;;;9.82;;